Pythagoras — C6ZO4 — position and weather

sailwx.info

Track history (hours):
 
Tides and Currents Weather Stations Pressure Air Temp Water Temp Dewpoint Dewpoint Depression Visibility Wind Speed Wind Dir Waves Ship Positions

Pythagoras

Last reported at 2016-May-03 08:27 UTC. Time now 2016-May-30 08:49 UTC.
Position N 15°09' W 018°00'.
Warning: this ship's position is 27 days out of date.

Length 190 m; draft 11.5 m.

Type: Cargo ship. MMSI: 311061300.

Date/timePositionNaut miles runAvg speedWind from/ knotsBaromVisibWave heightAir tempDewpointWater temp
2016-May-03 08:27N 15°09' W 018°00'1213.0
2016-May-03 07:33N 15°20' W 017°60'1313.2
2016-May-03 06:32N 15°34' W 018°00'1313.1
2016-May-03 05:33N 15°46' W 017°60'1313.2
2016-May-03 04:33N 15°60' W 018°00'1413.5
2016-May-03 03:33N 16°13' W 018°00'1313.5
2016-May-03 02:33N 16°27' W 018°00'1713.6
2016-May-03 01:16N 16°44' W 018°00'1013.7
2016-May-03 00:33N 16°54' W 018°00'3113.7
2016-May-02 22:20N 17°24' W 017°60'68713.5
2016-Apr-30 19:18N 28°06' W 013°33'2513.8
2016-Apr-30 17:31N 28°26' W 013°17'1313.6
2016-Apr-30 16:32N 28°37' W 013°08'1413.8
2016-Apr-30 15:32N 28°49' W 012°60'57113.3
2016-Apr-28 20:31N 35°58' W 005°34'1010.0
2016-Apr-28 19:33N 36°03' W 005°24'5 1.7
2016-Apr-28 16:30N 36°08' W 005°23'0 0.1
2016-Apr-28 15:33N 36°08' W 005°23'0 0.0
2016-Apr-28 14:33N 36°08' W 005°23'0 0.0
2016-Apr-28 12:27N 36°08' W 005°23'4 4.0
2016-Apr-28 11:33N 36°05' W 005°20'3 3.3
2016-Apr-28 10:33N 36°05' W 005°16'  
2016-Apr-25 07:26N 37°12' W 001°08'1213.2
2016-Apr-25 06:33N 37°12' W 000°53'1413.0
2016-Apr-25 05:29N 37°12' W 000°36'  
Track history (hours):
 
Tides and Currents Weather Stations Pressure Air Temp Water Temp Dewpoint Dewpoint Depression Visibility Wind Speed Wind Dir Waves Ship Positions

Pythagoras

Last reported at 2016-May-03 08:27 UTC. Time now 2016-May-30 08:49 UTC.
Position N 15°09' W 018°00'.
Warning: this ship's position is 27 days out of date.

Length 190 m; draft 11.5 m.

Type: Cargo ship. MMSI: 311061300.

Date/timePositionNaut miles runAvg speedWind from/ knotsBaromVisibWave heightAir tempDewpointWater temp
2016-May-03 08:27N 15°09' W 018°00'1213.0
2016-May-03 07:33N 15°20' W 017°60'1313.2
2016-May-03 06:32N 15°34' W 018°00'1313.1
2016-May-03 05:33N 15°46' W 017°60'1313.2
2016-May-03 04:33N 15°60' W 018°00'1413.5
2016-May-03 03:33N 16°13' W 018°00'1313.5
2016-May-03 02:33N 16°27' W 018°00'1713.6
2016-May-03 01:16N 16°44' W 018°00'1013.7
2016-May-03 00:33N 16°54' W 018°00'3113.7
2016-May-02 22:20N 17°24' W 017°60'68713.5
2016-Apr-30 19:18N 28°06' W 013°33'2513.8
2016-Apr-30 17:31N 28°26' W 013°17'1313.6
2016-Apr-30 16:32N 28°37' W 013°08'1413.8
2016-Apr-30 15:32N 28°49' W 012°60'57113.3
2016-Apr-28 20:31N 35°58' W 005°34'1010.0
2016-Apr-28 19:33N 36°03' W 005°24'5 1.7
2016-Apr-28 16:30N 36°08' W 005°23'0 0.1
2016-Apr-28 15:33N 36°08' W 005°23'0 0.0
2016-Apr-28 14:33N 36°08' W 005°23'0 0.0
2016-Apr-28 12:27N 36°08' W 005°23'4 4.0
2016-Apr-28 11:33N 36°05' W 005°20'3 3.3
2016-Apr-28 10:33N 36°05' W 005°16'  
2016-Apr-25 07:26N 37°12' W 001°08'1213.2
2016-Apr-25 06:33N 37°12' W 000°53'1413.0
2016-Apr-25 05:29N 37°12' W 000°36'  

Dump ship's entire track history